sensor_id;sensor_type;location;lat;lon;timestamp;P1;durP1;ratioP1;P2;durP2;ratioP2
33022;SDS011;19390;51.460;5.710;2022-07-29T00:01:21;2.83;;;1.38;;
33022;SDS011;19390;51.460;5.710;2022-07-29T00:03:47;7.97;;;1.65;;
33022;SDS011;19390;51.460;5.710;2022-07-29T00:06:13;4.35;;;1.90;;
33022;SDS011;19390;51.460;5.710;2022-07-29T00:08:39;6.65;;;1.58;;
33022;SDS011;19390;51.460;5.710;2022-07-29T00:11:04;5.65;;;1.65;;
33022;SDS011;19390;51.460;5.710;2022-07-29T00:13:30;10.57;;;2.20;;
33022;SDS011;19390;51.460;5.710;2022-07-29T00:15:56;5.63;;;1.80;;
33022;SDS011;19390;51.460;5.710;2022-07-29T00:18:21;4.50;;;1.90;;
33022;SDS011;19390;51.460;5.710;2022-07-29T00:20:47;4.63;;;1.90;;
33022;SDS011;19390;51.460;5.710;2022-07-29T00:23:12;4.88;;;1.85;;
33022;SDS011;19390;51.460;5.710;2022-07-29T00:25:38;4.22;;;2.03;;
33022;SDS011;19390;51.460;5.710;2022-07-29T00:28:04;6.75;;;2.15;;
33022;SDS011;19390;51.460;5.710;2022-07-29T00:30:29;3.80;;;1.85;;
33022;SDS011;19390;51.460;5.710;2022-07-29T00:32:55;7.40;;;2.10;;
33022;SDS011;19390;51.460;5.710;2022-07-29T00:35:21;4.85;;;2.10;;
33022;SDS011;19390;51.460;5.710;2022-07-29T00:38:05;7.82;;;2.50;;
33022;SDS011;19390;51.460;5.710;2022-07-29T00:40:30;5.78;;;2.30;;
33022;SDS011;19390;51.460;5.710;2022-07-29T00:42:56;7.30;;;2.20;;
33022;SDS011;19390;51.460;5.710;2022-07-29T00:45:22;5.38;;;2.33;;
33022;SDS011;19390;51.460;5.710;2022-07-29T00:47:47;5.40;;;2.50;;
33022;SDS011;19390;51.460;5.710;2022-07-29T00:50:13;6.18;;;2.53;;
33022;SDS011;19390;51.460;5.710;2022-07-29T00:52:40;7.38;;;2.83;;
33022;SDS011;19390;51.460;5.710;2022-07-29T00:55:08;6.32;;;2.95;;
33022;SDS011;19390;51.460;5.710;2022-07-29T00:57:35;5.97;;;3.17;;
33022;SDS011;19390;51.460;5.710;2022-07-29T01:00:04;9.13;;;3.60;;
33022;SDS011;19390;51.460;5.710;2022-07-29T01:02:32;8.73;;;3.00;;
33022;SDS011;19390;51.460;5.710;2022-07-29T01:04:57;6.70;;;2.80;;
33022;SDS011;19390;51.460;5.710;2022-07-29T01:07:24;6.75;;;3.05;;
33022;SDS011;19390;51.460;5.710;2022-07-29T01:09:51;8.85;;;3.53;;
33022;SDS011;19390;51.460;5.710;2022-07-29T01:12:20;5.20;;;2.97;;
33022;SDS011;19390;51.460;5.710;2022-07-29T01:14:49;7.95;;;3.80;;
33022;SDS011;19390;51.460;5.710;2022-07-29T01:17:18;6.22;;;3.95;;
33022;SDS011;19390;51.460;5.710;2022-07-29T01:19:51;7.40;;;3.78;;
33022;SDS011;19390;51.460;5.710;2022-07-29T01:24:58;6.47;;;4.03;;
33022;SDS011;19390;51.460;5.710;2022-07-29T01:30:59;9.85;;;4.32;;
33022;SDS011;19390;51.460;5.710;2022-07-29T01:33:27;12.93;;;4.75;;
33022;SDS011;19390;51.460;5.710;2022-07-29T01:36:14;8.15;;;4.30;;
33022;SDS011;19390;51.460;5.710;2022-07-29T01:38:51;10.30;;;4.63;;
33022;SDS011;19390;51.460;5.710;2022-07-29T01:41:23;7.82;;;4.13;;
33022;SDS011;19390;51.460;5.710;2022-07-29T01:43:52;6.00;;;4.38;;
33022;SDS011;19390;51.460;5.710;2022-07-29T01:46:24;9.68;;;4.97;;
33022;SDS011;19390;51.460;5.710;2022-07-29T01:48:57;5.55;;;4.47;;
33022;SDS011;19390;51.460;5.710;2022-07-29T01:51:36;7.45;;;4.60;;
33022;SDS011;19390;51.460;5.710;2022-07-29T01:54:16;9.68;;;4.30;;
33022;SDS011;19390;51.460;5.710;2022-07-29T01:56:51;5.85;;;4.03;;
33022;SDS011;19390;51.460;5.710;2022-07-29T01:59:20;7.88;;;4.65;;
33022;SDS011;19390;51.460;5.710;2022-07-29T02:01:46;6.97;;;4.18;;
33022;SDS011;19390;51.460;5.710;2022-07-29T02:04:14;10.15;;;5.07;;
33022;SDS011;19390;51.460;5.710;2022-07-29T02:06:41;6.18;;;3.40;;
33022;SDS011;19390;51.460;5.710;2022-07-29T02:09:09;9.25;;;4.30;;
33022;SDS011;19390;51.460;5.710;2022-07-29T02:11:37;7.47;;;3.83;;
33022;SDS011;19390;51.460;5.710;2022-07-29T02:14:04;8.02;;;4.10;;
33022;SDS011;19390;51.460;5.710;2022-07-29T02:16:31;8.57;;;3.92;;
33022;SDS011;19390;51.460;5.710;2022-07-29T02:18:58;7.70;;;3.70;;
33022;SDS011;19390;51.460;5.710;2022-07-29T02:21:26;4.90;;;3.30;;
33022;SDS011;19390;51.460;5.710;2022-07-29T02:23:53;7.18;;;3.63;;
33022;SDS011;19390;51.460;5.710;2022-07-29T02:26:20;6.35;;;3.72;;
33022;SDS011;19390;51.460;5.710;2022-07-29T02:28:50;6.53;;;3.88;;
33022;SDS011;19390;51.460;5.710;2022-07-29T02:31:19;4.75;;;3.85;;
33022;SDS011;19390;51.460;5.710;2022-07-29T02:33:48;8.25;;;4.25;;
33022;SDS011;19390;51.460;5.710;2022-07-29T02:36:14;4.55;;;4.10;;
33022;SDS011;19390;51.460;5.710;2022-07-29T02:38:41;7.90;;;3.80;;
33022;SDS011;19390;51.460;5.710;2022-07-29T02:41:28;9.05;;;4.00;;
33022;SDS011;19390;51.460;5.710;2022-07-29T02:44:01;5.55;;;4.00;;
33022;SDS011;19390;51.460;5.710;2022-07-29T02:46:33;6.85;;;3.92;;
33022;SDS011;19390;51.460;5.710;2022-07-29T02:51:46;7.28;;;4.00;;
33022;SDS011;19390;51.460;5.710;2022-07-29T02:54:26;6.32;;;3.55;;
33022;SDS011;19390;51.460;5.710;2022-07-29T02:57:04;6.53;;;3.97;;
33022;SDS011;19390;51.460;5.710;2022-07-29T02:59:36;11.45;;;4.13;;
33022;SDS011;19390;51.460;5.710;2022-07-29T03:02:06;5.13;;;4.10;;
33022;SDS011;19390;51.460;5.710;2022-07-29T03:04:34;5.93;;;4.35;;
33022;SDS011;19390;51.460;5.710;2022-07-29T03:07:00;6.70;;;3.70;;
33022;SDS011;19390;51.460;5.710;2022-07-29T03:09:28;8.40;;;3.90;;
33022;SDS011;19390;51.460;5.710;2022-07-29T03:11:55;8.77;;;3.90;;
33022;SDS011;19390;51.460;5.710;2022-07-29T03:14:21;7.28;;;4.60;;
33022;SDS011;19390;51.460;5.710;2022-07-29T03:16:48;5.95;;;3.97;;
33022;SDS011;19390;51.460;5.710;2022-07-29T03:19:16;6.22;;;3.55;;
33022;SDS011;19390;51.460;5.710;2022-07-29T03:21:42;6.80;;;3.80;;
33022;SDS011;19390;51.460;5.710;2022-07-29T03:24:08;5.00;;;4.03;;
33022;SDS011;19390;51.460;5.710;2022-07-29T03:26:33;10.75;;;4.82;;
33022;SDS011;19390;51.460;5.710;2022-07-29T03:28:59;5.32;;;4.30;;
33022;SDS011;19390;51.460;5.710;2022-07-29T03:31:25;7.20;;;4.10;;
33022;SDS011;19390;51.460;5.710;2022-07-29T03:33:50;5.18;;;3.97;;
33022;SDS011;19390;51.460;5.710;2022-07-29T03:36:16;8.20;;;3.92;;
33022;SDS011;19390;51.460;5.710;2022-07-29T03:38:42;8.13;;;4.20;;
33022;SDS011;19390;51.460;5.710;2022-07-29T03:41:09;6.55;;;5.43;;
33022;SDS011;19390;51.460;5.710;2022-07-29T03:43:37;6.10;;;4.53;;
33022;SDS011;19390;51.460;5.710;2022-07-29T03:46:06;6.75;;;4.70;;
33022;SDS011;19390;51.460;5.710;2022-07-29T03:48:34;7.07;;;4.90;;
33022;SDS011;19390;51.460;5.710;2022-07-29T03:51:04;6.93;;;5.38;;
33022;SDS011;19390;51.460;5.710;2022-07-29T03:53:31;8.43;;;5.30;;
33022;SDS011;19390;51.460;5.710;2022-07-29T03:55:58;6.40;;;4.60;;
33022;SDS011;19390;51.460;5.710;2022-07-29T03:58:27;7.57;;;4.45;;
33022;SDS011;19390;51.460;5.710;2022-07-29T04:00:55;10.10;;;6.85;;
33022;SDS011;19390;51.460;5.710;2022-07-29T04:03:21;9.30;;;6.00;;
33022;SDS011;19390;51.460;5.710;2022-07-29T04:05:57;8.63;;;7.15;;
33022;SDS011;19390;51.460;5.710;2022-07-29T04:08:24;9.00;;;5.75;;
33022;SDS011;19390;51.460;5.710;2022-07-29T04:10:49;10.60;;;6.32;;
33022;SDS011;19390;51.460;5.710;2022-07-29T04:13:16;8.63;;;5.32;;
33022;SDS011;19390;51.460;5.710;2022-07-29T04:15:42;10.75;;;6.47;;
33022;SDS011;19390;51.460;5.710;2022-07-29T04:18:08;13.45;;;6.30;;
33022;SDS011;19390;51.460;5.710;2022-07-29T04:20:34;9.52;;;6.20;;
33022;SDS011;19390;51.460;5.710;2022-07-29T04:22:59;11.13;;;5.50;;
33022;SDS011;19390;51.460;5.710;2022-07-29T04:25:25;7.75;;;5.38;;
33022;SDS011;19390;51.460;5.710;2022-07-29T04:27:52;10.27;;;7.10;;
33022;SDS011;19390;51.460;5.710;2022-07-29T04:30:26;9.82;;;6.55;;
33022;SDS011;19390;51.460;5.710;2022-07-29T04:32:53;8.25;;;6.28;;
33022;SDS011;19390;51.460;5.710;2022-07-29T04:35:19;10.60;;;5.97;;
33022;SDS011;19390;51.460;5.710;2022-07-29T04:37:44;8.55;;;6.70;;
33022;SDS011;19390;51.460;5.710;2022-07-29T04:40:10;9.25;;;6.53;;
33022;SDS011;19390;51.460;5.710;2022-07-29T04:42:36;8.00;;;6.97;;
33022;SDS011;19390;51.460;5.710;2022-07-29T04:45:03;8.30;;;6.80;;
33022;SDS011;19390;51.460;5.710;2022-07-29T04:47:28;10.48;;;6.63;;
33022;SDS011;19390;51.460;5.710;2022-07-29T04:49:54;9.68;;;6.10;;
33022;SDS011;19390;51.460;5.710;2022-07-29T04:52:21;8.30;;;6.47;;
33022;SDS011;19390;51.460;5.710;2022-07-29T04:54:47;8.32;;;6.47;;
33022;SDS011;19390;51.460;5.710;2022-07-29T04:57:13;8.25;;;6.43;;
33022;SDS011;19390;51.460;5.710;2022-07-29T04:59:38;10.35;;;7.20;;
33022;SDS011;19390;51.460;5.710;2022-07-29T05:02:04;11.45;;;6.53;;
33022;SDS011;19390;51.460;5.710;2022-07-29T05:04:30;9.75;;;6.80;;
33022;SDS011;19390;51.460;5.710;2022-07-29T05:06:55;10.68;;;7.40;;
33022;SDS011;19390;51.460;5.710;2022-07-29T05:09:21;10.80;;;6.82;;
33022;SDS011;19390;51.460;5.710;2022-07-29T05:11:46;8.20;;;6.88;;
33022;SDS011;19390;51.460;5.710;2022-07-29T05:14:12;10.35;;;7.80;;
33022;SDS011;19390;51.460;5.710;2022-07-29T05:16:38;10.07;;;6.93;;
33022;SDS011;19390;51.460;5.710;2022-07-29T05:19:05;11.32;;;7.47;;
33022;SDS011;19390;51.460;5.710;2022-07-29T05:21:30;10.35;;;8.18;;
33022;SDS011;19390;51.460;5.710;2022-07-29T05:23:56;8.30;;;7.25;;
33022;SDS011;19390;51.460;5.710;2022-07-29T05:26:22;8.70;;;6.38;;
33022;SDS011;19390;51.460;5.710;2022-07-29T05:28:47;9.65;;;5.95;;
33022;SDS011;19390;51.460;5.710;2022-07-29T05:31:14;13.15;;;7.25;;
33022;SDS011;19390;51.460;5.710;2022-07-29T05:33:40;7.50;;;6.68;;
33022;SDS011;19390;51.460;5.710;2022-07-29T05:36:06;14.32;;;8.80;;
33022;SDS011;19390;51.460;5.710;2022-07-29T05:38:33;9.93;;;7.55;;
33022;SDS011;19390;51.460;5.710;2022-07-29T05:40:59;9.30;;;8.32;;
33022;SDS011;19390;51.460;5.710;2022-07-29T05:43:25;10.32;;;8.20;;
33022;SDS011;19390;51.460;5.710;2022-07-29T05:45:52;12.57;;;7.78;;
33022;SDS011;19390;51.460;5.710;2022-07-29T05:48:17;10.73;;;8.23;;
33022;SDS011;19390;51.460;5.710;2022-07-29T05:50:43;9.90;;;6.88;;
33022;SDS011;19390;51.460;5.710;2022-07-29T05:53:08;17.08;;;9.05;;
33022;SDS011;19390;51.460;5.710;2022-07-29T05:55:34;9.20;;;8.15;;
33022;SDS011;19390;51.460;5.710;2022-07-29T05:57:59;8.52;;;6.78;;
33022;SDS011;19390;51.460;5.710;2022-07-29T06:00:25;10.40;;;7.20;;
33022;SDS011;19390;51.460;5.710;2022-07-29T06:02:50;12.20;;;7.88;;
33022;SDS011;19390;51.460;5.710;2022-07-29T06:05:16;10.38;;;7.25;;
33022;SDS011;19390;51.460;5.710;2022-07-29T06:07:42;9.57;;;7.45;;
33022;SDS011;19390;51.460;5.710;2022-07-29T06:10:07;8.20;;;6.75;;
33022;SDS011;19390;51.460;5.710;2022-07-29T06:12:34;13.00;;;8.90;;
33022;SDS011;19390;51.460;5.710;2022-07-29T06:14:59;14.05;;;9.57;;
33022;SDS011;19390;51.460;5.710;2022-07-29T06:17:25;9.75;;;8.02;;
33022;SDS011;19390;51.460;5.710;2022-07-29T06:19:51;17.02;;;10.00;;
33022;SDS011;19390;51.460;5.710;2022-07-29T06:22:16;14.43;;;9.15;;
33022;SDS011;19390;51.460;5.710;2022-07-29T06:24:42;11.80;;;9.20;;
33022;SDS011;19390;51.460;5.710;2022-07-29T06:27:09;13.23;;;9.57;;
33022;SDS011;19390;51.460;5.710;2022-07-29T06:29:35;11.55;;;9.27;;
33022;SDS011;19390;51.460;5.710;2022-07-29T06:32:01;12.73;;;9.90;;
33022;SDS011;19390;51.460;5.710;2022-07-29T06:34:27;13.13;;;9.73;;
33022;SDS011;19390;51.460;5.710;2022-07-29T06:36:53;13.98;;;9.07;;
33022;SDS011;19390;51.460;5.710;2022-07-29T06:39:18;14.70;;;9.02;;
33022;SDS011;19390;51.460;5.710;2022-07-29T06:41:47;12.90;;;9.27;;
33022;SDS011;19390;51.460;5.710;2022-07-29T06:44:14;13.90;;;8.82;;
33022;SDS011;19390;51.460;5.710;2022-07-29T06:46:40;13.00;;;9.10;;
33022;SDS011;19390;51.460;5.710;2022-07-29T06:49:06;10.20;;;9.15;;
33022;SDS011;19390;51.460;5.710;2022-07-29T06:51:32;12.45;;;9.05;;
33022;SDS011;19390;51.460;5.710;2022-07-29T06:53:58;17.40;;;9.55;;
33022;SDS011;19390;51.460;5.710;2022-07-29T06:56:24;10.32;;;8.60;;
33022;SDS011;19390;51.460;5.710;2022-07-29T06:58:50;15.25;;;10.13;;
33022;SDS011;19390;51.460;5.710;2022-07-29T07:01:15;14.05;;;8.52;;
33022;SDS011;19390;51.460;5.710;2022-07-29T07:03:41;10.77;;;7.70;;
33022;SDS011;19390;51.460;5.710;2022-07-29T07:06:07;11.25;;;7.68;;
33022;SDS011;19390;51.460;5.710;2022-07-29T07:08:32;11.07;;;8.13;;
33022;SDS011;19390;51.460;5.710;2022-07-29T07:10:58;12.48;;;8.07;;
33022;SDS011;19390;51.460;5.710;2022-07-29T07:13:24;11.32;;;8.15;;
33022;SDS011;19390;51.460;5.710;2022-07-29T07:15:50;8.95;;;6.95;;
33022;SDS011;19390;51.460;5.710;2022-07-29T07:18:17;10.98;;;6.88;;
33022;SDS011;19390;51.460;5.710;2022-07-29T07:20:43;10.40;;;6.40;;
33022;SDS011;19390;51.460;5.710;2022-07-29T07:23:09;7.57;;;5.78;;
33022;SDS011;19390;51.460;5.710;2022-07-29T07:25:35;7.70;;;5.43;;
33022;SDS011;19390;51.460;5.710;2022-07-29T07:28:01;5.95;;;4.53;;
33022;SDS011;19390;51.460;5.710;2022-07-29T07:30:27;9.10;;;5.35;;
33022;SDS011;19390;51.460;5.710;2022-07-29T07:32:53;7.68;;;5.00;;
33022;SDS011;19390;51.460;5.710;2022-07-29T07:35:20;10.98;;;6.15;;
33022;SDS011;19390;51.460;5.710;2022-07-29T07:37:46;9.55;;;6.45;;
33022;SDS011;19390;51.460;5.710;2022-07-29T07:40:12;7.00;;;5.80;;
33022;SDS011;19390;51.460;5.710;2022-07-29T07:42:39;9.80;;;5.72;;
33022;SDS011;19390;51.460;5.710;2022-07-29T07:45:05;7.60;;;5.20;;
33022;SDS011;19390;51.460;5.710;2022-07-29T07:47:34;7.93;;;6.47;;
33022;SDS011;19390;51.460;5.710;2022-07-29T07:50:00;6.95;;;6.25;;
33022;SDS011;19390;51.460;5.710;2022-07-29T07:52:25;8.93;;;6.65;;
33022;SDS011;19390;51.460;5.710;2022-07-29T07:54:51;9.48;;;6.05;;
33022;SDS011;19390;51.460;5.710;2022-07-29T07:57:17;6.53;;;4.45;;
33022;SDS011;19390;51.460;5.710;2022-07-29T07:59:43;5.15;;;4.40;;
33022;SDS011;19390;51.460;5.710;2022-07-29T08:02:09;5.55;;;3.80;;
33022;SDS011;19390;51.460;5.710;2022-07-29T08:04:34;7.32;;;5.07;;
33022;SDS011;19390;51.460;5.710;2022-07-29T08:07:01;6.68;;;3.70;;
33022;SDS011;19390;51.460;5.710;2022-07-29T08:09:27;8.10;;;3.50;;
33022;SDS011;19390;51.460;5.710;2022-07-29T08:11:54;5.65;;;4.03;;
33022;SDS011;19390;51.460;5.710;2022-07-29T08:14:20;5.22;;;4.10;;
33022;SDS011;19390;51.460;5.710;2022-07-29T08:16:45;4.60;;;3.40;;
33022;SDS011;19390;51.460;5.710;2022-07-29T08:19:11;9.38;;;3.88;;
33022;SDS011;19390;51.460;5.710;2022-07-29T08:21:37;7.97;;;3.10;;
33022;SDS011;19390;51.460;5.710;2022-07-29T08:24:03;7.20;;;3.58;;
33022;SDS011;19390;51.460;5.710;2022-07-29T08:26:47;5.15;;;4.50;;
33022;SDS011;19390;51.460;5.710;2022-07-29T08:29:13;7.28;;;3.78;;
33022;SDS011;19390;51.460;5.710;2022-07-29T08:31:39;5.35;;;4.30;;
33022;SDS011;19390;51.460;5.710;2022-07-29T08:34:05;3.70;;;3.03;;
33022;SDS011;19390;51.460;5.710;2022-07-29T08:36:31;6.00;;;3.67;;
33022;SDS011;19390;51.460;5.710;2022-07-29T08:38:58;5.18;;;3.15;;
33022;SDS011;19390;51.460;5.710;2022-07-29T08:41:24;11.43;;;3.63;;
33022;SDS011;19390;51.460;5.710;2022-07-29T08:43:50;7.35;;;3.00;;
33022;SDS011;19390;51.460;5.710;2022-07-29T08:46:16;7.75;;;3.00;;
33022;SDS011;19390;51.460;5.710;2022-07-29T08:48:42;4.32;;;2.28;;
33022;SDS011;19390;51.460;5.710;2022-07-29T08:51:08;3.25;;;2.47;;
33022;SDS011;19390;51.460;5.710;2022-07-29T08:53:40;4.43;;;3.20;;
33022;SDS011;19390;51.460;5.710;2022-07-29T08:56:07;6.05;;;2.97;;
33022;SDS011;19390;51.460;5.710;2022-07-29T08:58:36;3.58;;;2.58;;
33022;SDS011;19390;51.460;5.710;2022-07-29T09:01:02;5.57;;;3.25;;
33022;SDS011;19390;51.460;5.710;2022-07-29T09:03:31;6.03;;;2.92;;
33022;SDS011;19390;51.460;5.710;2022-07-29T09:05:59;5.15;;;2.60;;
33022;SDS011;19390;51.460;5.710;2022-07-29T09:08:26;5.63;;;2.33;;
33022;SDS011;19390;51.460;5.710;2022-07-29T09:10:52;4.28;;;3.03;;
33022;SDS011;19390;51.460;5.710;2022-07-29T09:13:18;6.30;;;2.05;;
33022;SDS011;19390;51.460;5.710;2022-07-29T09:15:44;6.55;;;2.63;;
33022;SDS011;19390;51.460;5.710;2022-07-29T09:18:10;8.20;;;3.25;;
33022;SDS011;19390;51.460;5.710;2022-07-29T09:20:36;3.72;;;2.55;;
33022;SDS011;19390;51.460;5.710;2022-07-29T09:23:19;6.05;;;3.33;;
33022;SDS011;19390;51.460;5.710;2022-07-29T09:25:45;3.83;;;3.08;;
33022;SDS011;19390;51.460;5.710;2022-07-29T09:28:12;2.70;;;2.45;;
33022;SDS011;19390;51.460;5.710;2022-07-29T09:30:52;5.22;;;2.75;;
33022;SDS011;19390;51.460;5.710;2022-07-29T09:33:19;7.05;;;3.25;;
33022;SDS011;19390;51.460;5.710;2022-07-29T09:35:46;5.18;;;3.20;;
33022;SDS011;19390;51.460;5.710;2022-07-29T09:38:23;4.97;;;2.22;;
33022;SDS011;19390;51.460;5.710;2022-07-29T09:40:55;4.70;;;2.67;;
33022;SDS011;19390;51.460;5.710;2022-07-29T09:43:22;4.25;;;3.25;;
33022;SDS011;19390;51.460;5.710;2022-07-29T09:45:47;3.72;;;2.90;;
33022;SDS011;19390;51.460;5.710;2022-07-29T09:48:14;4.60;;;2.30;;
33022;SDS011;19390;51.460;5.710;2022-07-29T09:50:47;4.10;;;2.53;;
33022;SDS011;19390;51.460;5.710;2022-07-29T09:56:03;6.57;;;2.30;;
33022;SDS011;19390;51.460;5.710;2022-07-29T09:58:30;2.72;;;2.28;;
33022;SDS011;19390;51.460;5.710;2022-07-29T10:00:56;5.70;;;2.70;;
33022;SDS011;19390;51.460;5.710;2022-07-29T10:03:22;5.07;;;2.72;;
33022;SDS011;19390;51.460;5.710;2022-07-29T10:06:10;4.15;;;2.90;;
33022;SDS011;19390;51.460;5.710;2022-07-29T10:08:38;3.13;;;2.80;;
33022;SDS011;19390;51.460;5.710;2022-07-29T10:11:15;6.20;;;3.83;;
33022;SDS011;19390;51.460;5.710;2022-07-29T10:13:42;6.40;;;3.47;;
33022;SDS011;19390;51.460;5.710;2022-07-29T10:16:09;4.53;;;3.30;;
33022;SDS011;19390;51.460;5.710;2022-07-29T10:18:35;6.30;;;3.10;;
33022;SDS011;19390;51.460;5.710;2022-07-29T10:21:03;3.80;;;3.33;;
33022;SDS011;19390;51.460;5.710;2022-07-29T10:23:29;6.38;;;3.60;;
33022;SDS011;19390;51.460;5.710;2022-07-29T10:25:55;3.88;;;3.05;;
33022;SDS011;19390;51.460;5.710;2022-07-29T10:28:20;3.83;;;3.50;;
33022;SDS011;19390;51.460;5.710;2022-07-29T10:30:46;5.25;;;2.97;;
33022;SDS011;19390;51.460;5.710;2022-07-29T10:44:43;6.47;;;3.40;;
33022;SDS011;19390;51.460;5.710;2022-07-29T10:47:22;3.60;;;2.25;;
33022;SDS011;19390;51.460;5.710;2022-07-29T10:49:55;4.68;;;2.72;;
33022;SDS011;19390;51.460;5.710;2022-07-29T10:52:51;3.83;;;2.97;;
33022;SDS011;19390;51.460;5.710;2022-07-29T10:55:29;4.25;;;2.60;;
33022;SDS011;19390;51.460;5.710;2022-07-29T10:58:11;5.10;;;3.55;;
33022;SDS011;19390;51.460;5.710;2022-07-29T11:00:40;4.43;;;2.63;;
33022;SDS011;19390;51.460;5.710;2022-07-29T11:03:06;4.53;;;3.30;;
33022;SDS011;19390;51.460;5.710;2022-07-29T11:05:50;3.97;;;3.08;;
33022;SDS011;19390;51.460;5.710;2022-07-29T11:08:20;5.43;;;3.08;;
33022;SDS011;19390;51.460;5.710;2022-07-29T11:10:49;5.63;;;2.53;;
33022;SDS011;19390;51.460;5.710;2022-07-29T11:16:12;5.78;;;3.15;;
33022;SDS011;19390;51.460;5.710;2022-07-29T11:21:36;4.30;;;3.30;;
33022;SDS011;19390;51.460;5.710;2022-07-29T11:24:18;3.97;;;3.08;;
33022;SDS011;19390;51.460;5.710;2022-07-29T11:29:34;3.13;;;1.90;;
33022;SDS011;19390;51.460;5.710;2022-07-29T11:32:11;3.63;;;2.90;;
33022;SDS011;19390;51.460;5.710;2022-07-29T11:34:39;4.20;;;2.42;;
33022;SDS011;19390;51.460;5.710;2022-07-29T11:39:37;3.47;;;2.85;;
33022;SDS011;19390;51.460;5.710;2022-07-29T11:47:32;3.20;;;1.80;;
33022;SDS011;19390;51.460;5.710;2022-07-29T11:50:00;3.08;;;1.80;;
33022;SDS011;19390;51.460;5.710;2022-07-29T11:52:34;3.15;;;1.83;;
33022;SDS011;19390;51.460;5.710;2022-07-29T11:55:03;2.90;;;1.50;;
33022;SDS011;19390;51.460;5.710;2022-07-29T11:57:30;4.45;;;2.38;;
33022;SDS011;19390;51.460;5.710;2022-07-29T11:59:56;6.10;;;1.55;;
33022;SDS011;19390;51.460;5.710;2022-07-29T12:02:23;4.20;;;2.08;;
33022;SDS011;19390;51.460;5.710;2022-07-29T12:04:50;3.65;;;2.00;;
33022;SDS011;19390;51.460;5.710;2022-07-29T12:07:16;2.00;;;1.40;;
33022;SDS011;19390;51.460;5.710;2022-07-29T12:09:52;4.28;;;1.45;;
33022;SDS011;19390;51.460;5.710;2022-07-29T12:12:18;3.28;;;1.52;;
33022;SDS011;19390;51.460;5.710;2022-07-29T12:14:45;1.35;;;1.10;;
33022;SDS011;19390;51.460;5.710;2022-07-29T12:20:03;6.47;;;1.60;;
33022;SDS011;19390;51.460;5.710;2022-07-29T12:22:31;4.07;;;1.50;;
33022;SDS011;19390;51.460;5.710;2022-07-29T12:25:02;5.45;;;1.60;;
33022;SDS011;19390;51.460;5.710;2022-07-29T12:27:29;4.53;;;1.58;;
33022;SDS011;19390;51.460;5.710;2022-07-29T12:30:03;4.82;;;1.42;;
33022;SDS011;19390;51.460;5.710;2022-07-29T12:32:34;3.30;;;1.40;;
33022;SDS011;19390;51.460;5.710;2022-07-29T12:35:11;2.22;;;1.00;;
33022;SDS011;19390;51.460;5.710;2022-07-29T12:37:39;4.43;;;1.67;;
33022;SDS011;19390;51.460;5.710;2022-07-29T12:40:06;5.05;;;1.70;;
33022;SDS011;19390;51.460;5.710;2022-07-29T12:42:33;3.67;;;1.90;;
33022;SDS011;19390;51.460;5.710;2022-07-29T12:44:59;4.78;;;2.40;;
33022;SDS011;19390;51.460;5.710;2022-07-29T12:47:26;3.72;;;1.70;;
33022;SDS011;19390;51.460;5.710;2022-07-29T12:50:07;3.45;;;1.42;;
33022;SDS011;19390;51.460;5.710;2022-07-29T12:52:37;2.45;;;1.85;;
33022;SDS011;19390;51.460;5.710;2022-07-29T12:55:03;3.00;;;1.98;;
33022;SDS011;19390;51.460;5.710;2022-07-29T12:57:29;5.32;;;1.95;;
33022;SDS011;19390;51.460;5.710;2022-07-29T13:02:33;4.00;;;1.90;;
33022;SDS011;19390;51.460;5.710;2022-07-29T13:04:59;3.33;;;1.80;;
33022;SDS011;19390;51.460;5.710;2022-07-29T13:07:27;3.67;;;2.38;;
33022;SDS011;19390;51.460;5.710;2022-07-29T13:09:54;3.85;;;1.70;;
33022;SDS011;19390;51.460;5.710;2022-07-29T13:12:39;7.07;;;2.88;;
33022;SDS011;19390;51.460;5.710;2022-07-29T13:15:23;3.78;;;1.90;;
33022;SDS011;19390;51.460;5.710;2022-07-29T13:17:49;4.82;;;1.73;;
33022;SDS011;19390;51.460;5.710;2022-07-29T13:20:15;3.38;;;2.38;;
33022;SDS011;19390;51.460;5.710;2022-07-29T13:22:41;4.00;;;2.08;;
33022;SDS011;19390;51.460;5.710;2022-07-29T13:25:07;5.03;;;1.75;;
33022;SDS011;19390;51.460;5.710;2022-07-29T13:27:34;4.68;;;2.20;;
33022;SDS011;19390;51.460;5.710;2022-07-29T13:30:03;4.20;;;2.50;;
33022;SDS011;19390;51.460;5.710;2022-07-29T13:32:30;5.03;;;2.70;;
33022;SDS011;19390;51.460;5.710;2022-07-29T13:34:59;5.60;;;2.30;;
33022;SDS011;19390;51.460;5.710;2022-07-29T13:37:27;6.75;;;2.33;;
33022;SDS011;19390;51.460;5.710;2022-07-29T13:39:54;2.80;;;2.10;;
33022;SDS011;19390;51.460;5.710;2022-07-29T13:42:20;4.18;;;2.85;;
33022;SDS011;19390;51.460;5.710;2022-07-29T13:44:46;5.10;;;2.50;;
33022;SDS011;19390;51.460;5.710;2022-07-29T13:47:13;5.97;;;2.47;;
33022;SDS011;19390;51.460;5.710;2022-07-29T13:49:41;6.70;;;2.40;;
33022;SDS011;19390;51.460;5.710;2022-07-29T13:52:06;4.60;;;2.70;;
33022;SDS011;19390;51.460;5.710;2022-07-29T13:54:32;6.68;;;2.40;;
33022;SDS011;19390;51.460;5.710;2022-07-29T13:56:58;6.78;;;3.47;;
33022;SDS011;19390;51.460;5.710;2022-07-29T13:59:23;6.75;;;3.10;;
33022;SDS011;19390;51.460;5.710;2022-07-29T14:01:49;4.38;;;2.97;;
33022;SDS011;19390;51.460;5.710;2022-07-29T14:04:15;7.60;;;3.17;;
33022;SDS011;19390;51.460;5.710;2022-07-29T14:06:41;4.38;;;2.65;;
33022;SDS011;19390;51.460;5.710;2022-07-29T14:09:07;4.95;;;2.50;;
33022;SDS011;19390;51.460;5.710;2022-07-29T14:11:33;3.45;;;2.20;;
33022;SDS011;19390;51.460;5.710;2022-07-29T14:14:00;3.45;;;2.42;;
33022;SDS011;19390;51.460;5.710;2022-07-29T14:16:25;5.18;;;2.20;;
33022;SDS011;19390;51.460;5.710;2022-07-29T14:18:51;3.60;;;2.60;;
33022;SDS011;19390;51.460;5.710;2022-07-29T14:21:16;6.28;;;2.92;;
33022;SDS011;19390;51.460;5.710;2022-07-29T14:23:42;6.30;;;2.40;;
33022;SDS011;19390;51.460;5.710;2022-07-29T14:26:08;6.30;;;3.10;;
33022;SDS011;19390;51.460;5.710;2022-07-29T14:28:33;6.05;;;3.10;;
33022;SDS011;19390;51.460;5.710;2022-07-29T14:30:59;5.57;;;2.58;;
33022;SDS011;19390;51.460;5.710;2022-07-29T14:33:24;3.72;;;2.13;;
33022;SDS011;19390;51.460;5.710;2022-07-29T14:35:50;7.32;;;3.00;;
33022;SDS011;19390;51.460;5.710;2022-07-29T14:38:15;8.93;;;2.60;;
33022;SDS011;19390;51.460;5.710;2022-07-29T14:40:41;4.72;;;2.08;;
33022;SDS011;19390;51.460;5.710;2022-07-29T14:43:07;7.50;;;2.78;;
33022;SDS011;19390;51.460;5.710;2022-07-29T14:45:32;7.72;;;2.47;;
33022;SDS011;19390;51.460;5.710;2022-07-29T14:47:58;5.30;;;2.30;;
33022;SDS011;19390;51.460;5.710;2022-07-29T14:50:24;4.25;;;2.08;;
33022;SDS011;19390;51.460;5.710;2022-07-29T14:52:51;4.28;;;1.95;;
33022;SDS011;19390;51.460;5.710;2022-07-29T14:55:17;3.40;;;2.17;;
33022;SDS011;19390;51.460;5.710;2022-07-29T14:57:42;4.32;;;1.80;;
33022;SDS011;19390;51.460;5.710;2022-07-29T15:00:08;5.80;;;2.00;;
33022;SDS011;19390;51.460;5.710;2022-07-29T15:02:35;2.67;;;2.10;;
33022;SDS011;19390;51.460;5.710;2022-07-29T15:05:00;4.97;;;2.38;;
33022;SDS011;19390;51.460;5.710;2022-07-29T15:07:26;3.55;;;2.38;;
33022;SDS011;19390;51.460;5.710;2022-07-29T15:09:52;5.57;;;2.30;;
33022;SDS011;19390;51.460;5.710;2022-07-29T15:12:18;5.40;;;2.10;;
33022;SDS011;19390;51.460;5.710;2022-07-29T15:14:43;4.13;;;2.10;;
33022;SDS011;19390;51.460;5.710;2022-07-29T15:17:09;5.18;;;2.00;;
33022;SDS011;19390;51.460;5.710;2022-07-29T15:19:35;4.60;;;2.08;;
33022;SDS011;19390;51.460;5.710;2022-07-29T15:22:00;6.63;;;1.67;;
33022;SDS011;19390;51.460;5.710;2022-07-29T15:24:26;5.28;;;2.33;;
33022;SDS011;19390;51.460;5.710;2022-07-29T15:26:52;4.25;;;1.73;;
33022;SDS011;19390;51.460;5.710;2022-07-29T15:29:18;2.67;;;2.20;;
33022;SDS011;19390;51.460;5.710;2022-07-29T15:31:43;3.70;;;1.90;;
33022;SDS011;19390;51.460;5.710;2022-07-29T15:34:09;6.90;;;2.22;;